Time;durP1;ratioP1;P1;durP2;ratioP2;P2;SDS_P1;SDS_P2;PMS_P1;PMS_P2;Temp;Humidity;BMP_temperature;BMP_pressure;BME280_temperature;BME280_humidity;BME280_pressure;Samples;Min_cycle;Max_cycle;Signal;HPM_P1;HPM_P2
2022/01/08 00:01:41;;;;;;;86.55;41.10;;;;;;;;;;5068404;28;20031;-45
2022/01/08 00:04:08;;;;;;;64.85;30.23;;;;;;;;;;5067884;28;20756;-45
2022/01/08 00:06:34;;;;;;;61.33;30.45;;;;;;;;;;5068825;28;20024;-43
2022/01/08 00:09:00;;;;;;;107.80;49.63;;;;;;;;;;5068424;28;20020;-42
2022/01/08 00:11:27;;;;;;;93.40;43.85;;;;;;;;;;5067240;28;20159;-43
2022/01/08 00:13:54;;;;;;;103.70;48.33;;;;;;;;;;5067593;28;20620;-42
2022/01/08 00:16:22;;;;;;;63.05;33.05;;;;;;;;;;5069133;28;20028;-45
2022/01/08 00:18:49;;;;;;;86.03;42.03;;;;;;;;;;5068606;28;20028;-43
2022/01/08 00:21:15;;;;;;;91.15;42.00;;;;;;;;;;5068636;28;20046;-41
2022/01/08 00:23:41;;;;;;;90.97;42.30;;;;;;;;;;5068287;28;20040;-42
2022/01/08 00:26:07;;;;;;;60.33;31.75;;;;;;;;;;5068444;28;20538;-43
2022/01/08 00:28:33;;;;;;;174.77;74.25;;;;;;;;;;5068093;28;20074;-42
2022/01/08 00:30:59;;;;;;;50.45;26.27;;;;;;;;;;5068584;28;20526;-44
2022/01/08 00:33:25;;;;;;;57.83;29.15;;;;;;;;;;5068247;28;20036;-44
2022/01/08 00:35:51;;;;;;;45.22;24.30;;;;;;;;;;5068257;28;20024;-44
2022/01/08 00:38:18;;;;;;;103.05;48.70;;;;;;;;;;5068585;28;20062;-43
2022/01/08 00:40:44;;;;;;;56.28;29.17;;;;;;;;;;5068261;28;20123;-44
2022/01/08 00:43:12;;;;;;;59.97;30.13;;;;;;;;;;5068445;28;21508;-43
2022/01/08 00:45:38;;;;;;;79.90;37.92;;;;;;;;;;5068184;28;20027;-41
2022/01/08 00:48:04;;;;;;;75.60;32.90;;;;;;;;;;5068181;28;20040;-42
2022/01/08 00:50:30;;;;;;;83.97;40.53;;;;;;;;;;5068149;28;20394;-42
2022/01/08 00:52:56;;;;;;;82.22;38.13;;;;;;;;;;5068131;28;20024;-42
2022/01/08 00:55:23;;;;;;;60.28;30.80;;;;;;;;;;5068221;28;20020;-42
2022/01/08 00:57:49;;;;;;;76.25;35.15;;;;;;;;;;5068001;28;20724;-42
2022/01/08 01:00:15;;;;;;;89.60;40.58;;;;;;;;;;5067753;28;20047;-43
2022/01/08 01:02:41;;;;;;;63.55;32.13;;;;;;;;;;5069627;28;20020;-43
2022/01/08 01:05:11;;;;;;;84.53;40.17;;;;;;;;;;5072098;28;20023;-43
2022/01/08 01:07:37;;;;;;;77.38;38.38;;;;;;;;;;5071796;28;20361;-43
2022/01/08 01:10:04;;;;;;;89.78;43.53;;;;;;;;;;5071812;28;20020;-43
2022/01/08 01:12:30;;;;;;;81.75;40.35;;;;;;;;;;5071501;28;20540;-42
2022/01/08 01:14:56;;;;;;;74.90;37.63;;;;;;;;;;5071839;28;20033;-42
2022/01/08 01:17:23;;;;;;;53.03;27.55;;;;;;;;;;5071796;28;20027;-43
2022/01/08 01:19:51;;;;;;;43.25;22.75;;;;;;;;;;5071832;28;20107;-43
2022/01/08 01:22:21;;;;;;;54.47;26.83;;;;;;;;;;5071681;28;20078;-43
2022/01/08 01:24:48;;;;;;;56.38;28.55;;;;;;;;;;5071858;28;20028;-42
2022/01/08 01:48:54;;;;;;;41.20;21.45;;;;;;;;;;5071022;28;20084;-42
2022/01/08 01:51:21;;;;;;;37.28;20.30;;;;;;;;;;5071653;28;20081;-45
2022/01/08 01:53:50;;;;;;;47.25;24.73;;;;;;;;;;5071535;28;20135;-42
2022/01/08 01:56:17;;;;;;;47.22;24.17;;;;;;;;;;5071048;28;20072;-42
2022/01/08 01:58:46;;;;;;;51.75;24.65;;;;;;;;;;5071281;28;20031;-42
2022/01/08 02:01:12;;;;;;;100.07;46.97;;;;;;;;;;5070720;28;20526;-42
2022/01/08 02:03:39;;;;;;;39.75;20.95;;;;;;;;;;5070478;28;20665;-42
2022/01/08 02:06:06;;;;;;;56.08;29.40;;;;;;;;;;5070793;28;20063;-42
2022/01/08 02:08:32;;;;;;;71.82;35.17;;;;;;;;;;5071011;28;20176;-43
2022/01/08 02:10:58;;;;;;;61.90;30.80;;;;;;;;;;5070718;28;20027;-43
2022/01/08 02:13:28;;;;;;;39.38;21.58;;;;;;;;;;5070599;28;20378;-43
2022/01/08 02:15:55;;;;;;;45.67;23.77;;;;;;;;;;5070610;28;20429;-43
2022/01/08 02:18:27;;;;;;;80.63;36.05;;;;;;;;;;5070475;28;20047;-43
2022/01/08 02:20:57;;;;;;;67.60;35.10;;;;;;;;;;5070856;28;20485;-43
2022/01/08 02:23:23;;;;;;;51.72;26.27;;;;;;;;;;5070567;28;20031;-41
2022/01/08 02:25:50;;;;;;;53.88;26.73;;;;;;;;;;5070830;28;20027;-42
2022/01/08 02:28:17;;;;;;;38.10;21.42;;;;;;;;;;5070190;28;20048;-42
2022/01/08 02:30:43;;;;;;;66.00;32.67;;;;;;;;;;5070446;28;20054;-41
2022/01/08 02:33:11;;;;;;;41.38;23.58;;;;;;;;;;5070157;28;20175;-42
2022/01/08 02:35:37;;;;;;;52.90;27.15;;;;;;;;;;5070523;28;20031;-42
2022/01/08 02:38:03;;;;;;;61.38;32.35;;;;;;;;;;5070469;28;20028;-43
2022/01/08 02:40:30;;;;;;;40.75;22.52;;;;;;;;;;5070205;28;20028;-42
2022/01/08 02:43:03;;;;;;;47.20;25.92;;;;;;;;;;5070791;28;20086;-42
2022/01/08 02:45:30;;;;;;;42.45;23.10;;;;;;;;;;5070044;28;20069;-42
2022/01/08 02:47:57;;;;;;;45.28;25.25;;;;;;;;;;5070189;28;20032;-42
2022/01/08 02:50:24;;;;;;;44.05;23.95;;;;;;;;;;5070375;28;20103;-44
2022/01/08 02:52:53;;;;;;;56.85;27.75;;;;;;;;;;5079295;28;20020;-43
2022/01/08 02:55:20;;;;;;;61.85;30.58;;;;;;;;;;5094708;28;20024;-44
2022/01/08 02:57:46;;;;;;;45.60;24.58;;;;;;;;;;5094718;28;20024;-43
2022/01/08 03:00:14;;;;;;;35.90;19.80;;;;;;;;;;5094572;28;20028;-43
2022/01/08 03:02:47;;;;;;;44.83;25.48;;;;;;;;;;5094706;28;20428;-43
2022/01/08 03:05:13;;;;;;;48.85;26.63;;;;;;;;;;5094631;28;20038;-44
2022/01/08 03:07:40;;;;;;;34.85;20.15;;;;;;;;;;5094572;28;20032;-43
2022/01/08 03:10:08;;;;;;;43.47;22.63;;;;;;;;;;5094420;28;20016;-44
2022/01/08 03:12:38;;;;;;;32.75;19.25;;;;;;;;;;5094321;28;20106;-43
2022/01/08 03:15:07;;;;;;;53.30;26.90;;;;;;;;;;5094266;28;20056;-42
2022/01/08 03:17:33;;;;;;;43.03;22.83;;;;;;;;;;5094387;28;20020;-42
2022/01/08 03:20:09;;;;;;;49.03;27.45;;;;;;;;;;5094245;28;20352;-42
2022/01/08 03:22:36;;;;;;;44.10;23.67;;;;;;;;;;5094065;28;20089;-42
2022/01/08 03:25:02;;;;;;;38.20;21.65;;;;;;;;;;5093642;28;20017;-42
2022/01/08 03:27:28;;;;;;;38.03;20.70;;;;;;;;;;5093820;28;20044;-42
2022/01/08 03:29:55;;;;;;;31.38;18.65;;;;;;;;;;5094181;28;20459;-42
2022/01/08 03:32:21;;;;;;;40.55;21.75;;;;;;;;;;5094155;28;20024;-42
2022/01/08 03:34:47;;;;;;;47.35;24.13;;;;;;;;;;5093878;28;20020;-43
2022/01/08 03:37:13;;;;;;;42.05;24.00;;;;;;;;;;5093999;28;20024;-44
2022/01/08 03:39:39;;;;;;;46.53;23.98;;;;;;;;;;5093769;28;20035;-43
2022/01/08 03:42:05;;;;;;;37.85;21.23;;;;;;;;;;5093838;28;20021;-42
2022/01/08 03:44:32;;;;;;;48.75;23.48;;;;;;;;;;5093918;28;20027;-42
2022/01/08 03:47:21;;;;;;;43.40;24.23;;;;;;;;;;5093784;28;20028;-42
2022/01/08 03:49:44;;;;;;;47.20;24.70;;;;;;;;;;5093586;28;20047;-42
2022/01/08 03:52:12;;;;;;;41.25;21.70;;;;;;;;;;5093580;28;20050;-43
2022/01/08 03:54:38;;;;;;;39.05;20.70;;;;;;;;;;5093940;28;20031;-41
2022/01/08 03:57:04;;;;;;;39.08;20.73;;;;;;;;;;5093511;28;20059;-42
2022/01/08 03:59:31;;;;;;;40.65;21.63;;;;;;;;;;5093733;28;20027;-42
2022/01/08 04:01:57;;;;;;;37.42;19.65;;;;;;;;;;5093556;28;20024;-43
2022/01/08 04:04:23;;;;;;;35.45;18.88;;;;;;;;;;5093535;28;20367;-43
2022/01/08 04:06:49;;;;;;;39.05;21.20;;;;;;;;;;5093408;28;20081;-42
2022/01/08 04:09:16;;;;;;;39.55;20.15;;;;;;;;;;5093381;28;20032;-42
2022/01/08 04:11:42;;;;;;;38.53;20.15;;;;;;;;;;5093440;28;20378;-42
2022/01/08 04:14:08;;;;;;;38.67;19.17;;;;;;;;;;5093453;28;20028;-43
2022/01/08 04:16:36;;;;;;;39.15;20.85;;;;;;;;;;5093375;28;20493;-43
2022/01/08 04:19:02;;;;;;;48.13;26.42;;;;;;;;;;5093323;28;20020;-43
2022/01/08 04:21:59;;;;;;;33.60;19.75;;;;;;;;;;5093206;28;20020;-43
2022/01/08 04:24:17;;;;;;;32.67;18.75;;;;;;;;;;5093136;28;20032;-42
2022/01/08 04:26:43;;;;;;;38.65;21.92;;;;;;;;;;5093187;28;20036;-42
2022/01/08 04:29:10;;;;;;;76.45;37.08;;;;;;;;;;5092966;28;20059;-42
2022/01/08 04:31:37;;;;;;;73.53;35.10;;;;;;;;;;5093231;28;20076;-42
2022/01/08 04:34:03;;;;;;;69.50;34.85;;;;;;;;;;5092952;28;20028;-41
2022/01/08 04:36:29;;;;;;;49.63;27.42;;;;;;;;;;5094437;28;20016;-42
2022/01/08 04:38:55;;;;;;;60.03;28.40;;;;;;;;;;5097223;28;20072;-42
2022/01/08 04:41:21;;;;;;;48.33;25.73;;;;;;;;;;5097283;28;20103;-42
2022/01/08 04:43:47;;;;;;;82.88;42.75;;;;;;;;;;5097260;28;20474;-45
2022/01/08 04:46:14;;;;;;;75.28;37.88;;;;;;;;;;5097135;28;20028;-43
2022/01/08 04:48:40;;;;;;;81.10;39.72;;;;;;;;;;5096946;28;20032;-42
2022/01/08 04:51:06;;;;;;;72.00;37.25;;;;;;;;;;5096878;28;20017;-43
2022/01/08 04:53:32;;;;;;;87.60;43.85;;;;;;;;;;5096946;28;20466;-42
2022/01/08 04:55:58;;;;;;;59.60;30.45;;;;;;;;;;5096846;28;20032;-42
2022/01/08 04:58:24;;;;;;;123.35;59.45;;;;;;;;;;5095600;28;20466;-42
2022/01/08 05:00:53;;;;;;;76.28;39.45;;;;;;;;;;5096880;28;20086;-42
2022/01/08 05:03:19;;;;;;;60.42;32.50;;;;;;;;;;5096758;28;20045;-42
2022/01/08 05:05:46;;;;;;;49.10;27.13;;;;;;;;;;5096764;28;20039;-42
2022/01/08 05:08:12;;;;;;;61.92;31.25;;;;;;;;;;5096563;28;20039;-43
2022/01/08 05:10:40;;;;;;;60.42;31.67;;;;;;;;;;5096716;28;20046;-43
2022/01/08 05:13:07;;;;;;;53.50;26.08;;;;;;;;;;5096658;28;20028;-42
2022/01/08 05:15:33;;;;;;;59.55;30.35;;;;;;;;;;5096690;28;20051;-43
2022/01/08 05:18:04;;;;;;;58.45;31.80;;;;;;;;;;5096655;28;20510;-43
2022/01/08 05:20:34;;;;;;;45.40;24.53;;;;;;;;;;5095177;28;20431;-49
2022/01/08 05:23:00;;;;;;;48.65;27.00;;;;;;;;;;5096768;28;20665;-46
2022/01/08 05:25:27;;;;;;;52.10;26.48;;;;;;;;;;5096564;28;20016;-46
2022/01/08 05:27:53;;;;;;;55.15;31.15;;;;;;;;;;5096322;28;20110;-43
2022/01/08 05:30:21;;;;;;;58.97;31.55;;;;;;;;;;5096433;28;20028;-45
2022/01/08 05:32:47;;;;;;;46.67;27.27;;;;;;;;;;5096462;28;20028;-43
2022/01/08 05:35:14;;;;;;;43.85;23.65;;;;;;;;;;5096157;28;20032;-42
2022/01/08 05:37:40;;;;;;;47.28;24.55;;;;;;;;;;5096467;28;20044;-43
2022/01/08 05:40:06;;;;;;;50.30;28.10;;;;;;;;;;5095916;28;20052;-44
2022/01/08 05:42:33;;;;;;;44.42;24.92;;;;;;;;;;5095646;28;20020;-44
2022/01/08 05:44:59;;;;;;;39.58;22.38;;;;;;;;;;5095727;28;20478;-46
2022/01/08 05:47:29;;;;;;;39.03;22.33;;;;;;;;;;5095196;28;20035;-44
2022/01/08 05:49:55;;;;;;;37.97;21.95;;;;;;;;;;5095472;28;20024;-46
2022/01/08 05:52:22;;;;;;;40.80;22.83;;;;;;;;;;5095659;28;20024;-43
2022/01/08 05:54:48;;;;;;;38.63;22.88;;;;;;;;;;5095484;28;20390;-43
2022/01/08 05:57:14;;;;;;;44.22;23.90;;;;;;;;;;5095231;28;20480;-43
2022/01/08 05:59:41;;;;;;;42.38;24.05;;;;;;;;;;5095400;28;20028;-43
2022/01/08 06:02:09;;;;;;;99.75;46.70;;;;;;;;;;5095202;28;20073;-43
2022/01/08 06:04:35;;;;;;;105.15;43.95;;;;;;;;;;5095022;28;20035;-43
2022/01/08 06:07:01;;;;;;;123.20;50.67;;;;;;;;;;5095161;28;20023;-43
2022/01/08 06:09:27;;;;;;;135.80;54.78;;;;;;;;;;5095231;28;20068;-44
2022/01/08 06:11:53;;;;;;;107.03;45.40;;;;;;;;;;5095037;28;20012;-46
2022/01/08 06:14:19;;;;;;;88.35;43.53;;;;;;;;;;5095107;28;20026;-43
2022/01/08 06:16:45;;;;;;;65.75;35.45;;;;;;;;;;5095051;28;20023;-44
2022/01/08 06:19:12;;;;;;;56.15;31.63;;;;;;;;;;5094788;28;20051;-43
2022/01/08 06:21:39;;;;;;;59.28;32.03;;;;;;;;;;5095131;28;20359;-43
2022/01/08 06:24:05;;;;;;;52.13;29.17;;;;;;;;;;5094926;28;20020;-44
2022/01/08 06:26:32;;;;;;;51.50;28.60;;;;;;;;;;5093804;28;20460;-43
2022/01/08 06:28:58;;;;;;;69.72;36.90;;;;;;;;;;5093531;28;20387;-43
2022/01/08 06:31:27;;;;;;;77.03;40.95;;;;;;;;;;5095358;28;20016;-44
2022/01/08 06:33:53;;;;;;;86.60;44.53;;;;;;;;;;5095482;28;20051;-44
2022/01/08 06:36:19;;;;;;;79.80;43.58;;;;;;;;;;5095237;28;20021;-44
2022/01/08 06:38:49;;;;;;;67.43;36.10;;;;;;;;;;5095212;28;20063;-43
2022/01/08 06:41:16;;;;;;;61.42;37.55;;;;;;;;;;5095462;28;20024;-43
2022/01/08 06:43:42;;;;;;;47.50;27.63;;;;;;;;;;5095165;28;20023;-43
2022/01/08 06:46:08;;;;;;;48.30;28.17;;;;;;;;;;5094942;28;20087;-43
2022/01/08 06:48:40;;;;;;;55.53;30.50;;;;;;;;;;5095324;28;20040;-44
2022/01/08 06:51:06;;;;;;;64.57;33.13;;;;;;;;;;5094990;28;20020;-45
2022/01/08 06:53:32;;;;;;;65.90;34.47;;;;;;;;;;5094847;28;20474;-43
2022/01/08 06:56:01;;;;;;;60.47;32.90;;;;;;;;;;5094788;28;20052;-43
2022/01/08 06:58:27;;;;;;;59.47;33.47;;;;;;;;;;5094858;28;20020;-43
2022/01/08 07:00:53;;;;;;;60.50;32.30;;;;;;;;;;5093678;28;20381;-44
2022/01/08 07:03:19;;;;;;;63.60;33.38;;;;;;;;;;5094611;28;20024;-43
2022/01/08 07:05:45;;;;;;;61.63;32.38;;;;;;;;;;5094529;28;20030;-43
2022/01/08 07:08:11;;;;;;;70.13;35.95;;;;;;;;;;5094399;28;20127;-44
2022/01/08 07:10:38;;;;;;;69.60;33.10;;;;;;;;;;5094612;28;20016;-44
2022/01/08 07:13:04;;;;;;;71.45;33.53;;;;;;;;;;5094696;28;20035;-45
2022/01/08 07:15:35;;;;;;;68.43;36.75;;;;;;;;;;5094602;28;20028;-43
2022/01/08 07:18:01;;;;;;;66.07;34.85;;;;;;;;;;5094574;28;20037;-43
2022/01/08 07:20:27;;;;;;;61.58;32.33;;;;;;;;;;5094309;28;20112;-42
2022/01/08 07:22:55;;;;;;;64.60;34.00;;;;;;;;;;5094210;28;20024;-43
2022/01/08 07:25:21;;;;;;;58.08;34.85;;;;;;;;;;5094324;28;20031;-43
2022/01/08 07:27:48;;;;;;;69.80;37.85;;;;;;;;;;5093965;28;20048;-44
2022/01/08 07:30:14;;;;;;;84.13;43.20;;;;;;;;;;5094130;28;20020;-43
2022/01/08 07:32:46;;;;;;;87.68;45.00;;;;;;;;;;5092680;28;20028;-44
2022/01/08 07:35:14;;;;;;;77.43;40.28;;;;;;;;;;5094075;28;20137;-44
2022/01/08 07:37:42;;;;;;;67.82;35.78;;;;;;;;;;5094180;28;20023;-44
2022/01/08 07:40:09;;;;;;;65.35;35.17;;;;;;;;;;5094041;28;20016;-43
2022/01/08 07:42:35;;;;;;;65.97;36.05;;;;;;;;;;5093954;28;20085;-43
2022/01/08 07:45:01;;;;;;;68.95;37.15;;;;;;;;;;5093914;28;20148;-43
2022/01/08 07:47:30;;;;;;;61.60;33.30;;;;;;;;;;5093763;28;20016;-43
2022/01/08 07:49:56;;;;;;;79.40;41.30;;;;;;;;;;5093742;28;20517;-42
2022/01/08 07:52:22;;;;;;;93.20;52.33;;;;;;;;;;5093978;28;20070;-43
2022/01/08 07:54:48;;;;;;;78.20;41.75;;;;;;;;;;5093895;28;20077;-42
2022/01/08 07:57:14;;;;;;;67.45;37.45;;;;;;;;;;5093958;28;20025;-42
2022/01/08 07:59:43;;;;;;;59.83;32.85;;;;;;;;;;5093650;28;20028;-42
2022/01/08 08:02:11;;;;;;;68.18;32.65;;;;;;;;;;5093506;28;20024;-43
2022/01/08 08:04:38;;;;;;;62.65;31.88;;;;;;;;;;5093711;28;20073;-43
2022/01/08 08:07:04;;;;;;;62.15;28.50;;;;;;;;;;5093582;28;20435;-42
2022/01/08 08:09:30;;;;;;;57.88;28.55;;;;;;;;;;5093604;28;20400;-44
2022/01/08 08:11:56;;;;;;;53.15;27.27;;;;;;;;;;5093167;28;20380;-42
2022/01/08 08:14:22;;;;;;;52.33;27.33;;;;;;;;;;5093403;28;20115;-43
2022/01/08 08:16:49;;;;;;;43.38;24.08;;;;;;;;;;5093333;28;20032;-42
2022/01/08 08:19:16;;;;;;;49.35;24.42;;;;;;;;;;5093392;28;20450;-42
2022/01/08 08:21:42;;;;;;;51.47;25.73;;;;;;;;;;5093416;28;20021;-42
2022/01/08 08:24:08;;;;;;;57.58;26.92;;;;;;;;;;5093397;28;20036;-42
2022/01/08 08:26:38;;;;;;;55.38;27.13;;;;;;;;;;5093323;28;20019;-43
2022/01/08 08:29:05;;;;;;;46.08;22.17;;;;;;;;;;5093037;28;20420;-43
2022/01/08 08:31:31;;;;;;;61.88;28.20;;;;;;;;;;5093109;28;20031;-42
2022/01/08 08:33:57;;;;;;;63.72;32.15;;;;;;;;;;5093273;28;20042;-43
2022/01/08 08:36:23;;;;;;;67.05;30.33;;;;;;;;;;5093438;28;20111;-43
2022/01/08 08:38:49;;;;;;;50.10;23.85;;;;;;;;;;5093277;28;20020;-44
2022/01/08 08:41:15;;;;;;;61.38;29.65;;;;;;;;;;5093104;28;20020;-43
2022/01/08 08:43:41;;;;;;;61.45;31.13;;;;;;;;;;5093104;28;20024;-43
2022/01/08 08:46:07;;;;;;;46.83;25.40;;;;;;;;;;5093063;28;20047;-42
2022/01/08 08:48:34;;;;;;;62.70;32.85;;;;;;;;;;5093306;28;20123;-42
2022/01/08 08:51:00;;;;;;;60.17;32.75;;;;;;;;;;5092912;28;20027;-43
2022/01/08 08:53:28;;;;;;;58.00;31.95;;;;;;;;;;5093319;28;20559;-42
2022/01/08 08:55:55;;;;;;;53.03;28.42;;;;;;;;;;5092975;28;20023;-43
2022/01/08 08:58:21;;;;;;;52.20;29.73;;;;;;;;;;5093053;28;20482;-43
2022/01/08 09:00:48;;;;;;;47.38;25.08;;;;;;;;;;5093235;28;20027;-43
2022/01/08 09:03:16;;;;;;;45.72;25.08;;;;;;;;;;5092881;28;20027;-43
2022/01/08 09:05:42;;;;;;;58.30;28.77;;;;;;;;;;5092933;28;20024;-43
2022/01/08 09:08:08;;;;;;;48.13;24.25;;;;;;;;;;5093179;28;20034;-44
2022/01/08 09:10:34;;;;;;;47.22;23.50;;;;;;;;;;5092937;28;20386;-43
2022/01/08 09:13:03;;;;;;;50.08;24.92;;;;;;;;;;5093235;28;20461;-43
2022/01/08 09:15:29;;;;;;;53.67;25.17;;;;;;;;;;5092837;28;20048;-43
2022/01/08 09:17:57;;;;;;;47.97;24.40;;;;;;;;;;5092802;28;20480;-42
2022/01/08 09:20:23;;;;;;;47.92;24.25;;;;;;;;;;5092925;28;20390;-42
2022/01/08 09:22:49;;;;;;;59.45;29.38;;;;;;;;;;5092930;28;20016;-43
2022/01/08 09:25:15;;;;;;;51.15;26.55;;;;;;;;;;5096453;28;20024;-44
2022/01/08 09:27:43;;;;;;;55.25;28.52;;;;;;;;;;5096522;28;20179;-42
2022/01/08 09:30:12;;;;;;;40.20;23.23;;;;;;;;;;5096398;28;20036;-43
2022/01/08 09:32:38;;;;;;;42.42;24.23;;;;;;;;;;5096502;28;20394;-43
2022/01/08 09:35:05;;;;;;;40.92;23.65;;;;;;;;;;5096247;28;20032;-43
2022/01/08 09:37:33;;;;;;;47.35;26.27;;;;;;;;;;5095139;28;20059;-44
2022/01/08 09:39:59;;;;;;;47.70;26.98;;;;;;;;;;5096219;28;20508;-43
2022/01/08 09:42:25;;;;;;;45.78;26.60;;;;;;;;;;5096294;28;20022;-44
2022/01/08 09:44:52;;;;;;;55.50;29.10;;;;;;;;;;5095076;28;20033;-42
2022/01/08 09:47:18;;;;;;;51.88;30.95;;;;;;;;;;5094755;28;20089;-42
2022/01/08 09:49:44;;;;;;;64.10;34.53;;;;;;;;;;5095956;28;20107;-42
2022/01/08 09:52:10;;;;;;;75.78;40.67;;;;;;;;;;5096351;28;20367;-44
2022/01/08 09:54:36;;;;;;;62.60;35.70;;;;;;;;;;5096015;28;20462;-45
2022/01/08 09:57:02;;;;;;;118.63;50.00;;;;;;;;;;5096195;28;20062;-43
2022/01/08 09:59:29;;;;;;;111.53;48.50;;;;;;;;;;5095849;28;20081;-43
2022/01/08 10:01:56;;;;;;;149.07;56.63;;;;;;;;;;5095809;28;20031;-43
2022/01/08 10:04:43;;;;;;;186.55;67.28;;;;;;;;;;5096036;28;20020;-43
2022/01/08 10:07:22;;;;;;;105.10;47.33;;;;;;;;;;5095932;28;20103;-42
2022/01/08 10:09:57;;;;;;;76.68;40.17;;;;;;;;;;5094193;28;20111;-45
2022/01/08 10:12:44;;;;;;;68.80;36.92;;;;;;;;;;5096050;28;20020;-44
2022/01/08 10:17:56;;;;;;;59.75;33.63;;;;;;;;;;5095823;28;20039;-45
2022/01/08 10:20:37;;;;;;;64.32;34.25;;;;;;;;;;5095453;28;20024;-49
2022/01/08 10:23:18;;;;;;;69.13;34.42;;;;;;;;;;5095566;28;20020;-46
2022/01/08 10:25:44;;;;;;;;;;;;;;;;;;5095846;28;20020;-42
2022/01/08 10:28:10;;;;;;;64.03;32.90;;;;;;;;;;5095444;28;20299;-43
2022/01/08 10:30:37;;;;;;;59.33;32.90;;;;;;;;;;5095383;28;20031;-45
2022/01/08 10:33:03;;;;;;;59.30;32.72;;;;;;;;;;5095239;28;20055;-44
2022/01/08 10:35:48;;;;;;;70.38;36.33;;;;;;;;;;5094840;28;20030;-44
2022/01/08 10:38:14;;;;;;;68.82;34.20;;;;;;;;;;5095148;28;20031;-42
2022/01/08 10:40:43;;;;;;;61.00;34.03;;;;;;;;;;5095305;28;20490;-43
2022/01/08 10:43:21;;;;;;;56.00;31.60;;;;;;;;;;5095048;28;20054;-44
2022/01/08 10:45:47;;;;;;;56.95;31.80;;;;;;;;;;5094992;28;20016;-43
2022/01/08 10:48:15;;;;;;;58.85;30.67;;;;;;;;;;5094872;28;20055;-44
2022/01/08 10:50:41;;;;;;;51.17;27.80;;;;;;;;;;5095176;28;20032;-43
2022/01/08 10:53:08;;;;;;;50.33;27.05;;;;;;;;;;5094739;28;20019;-44
2022/01/08 10:55:34;;;;;;;57.33;31.25;;;;;;;;;;5094758;28;20500;-47
2022/01/08 10:58:00;;;;;;;62.28;32.97;;;;;;;;;;5094955;28;20051;-44
2022/01/08 11:00:32;;;;;;;65.03;33.65;;;;;;;;;;5094667;28;20119;-45
2022/01/08 11:03:01;;;;;;;57.15;31.63;;;;;;;;;;5094699;28;20517;-44
2022/01/08 11:05:28;;;;;;;68.63;35.72;;;;;;;;;;5094682;28;20063;-43
2022/01/08 11:08:12;;;;;;;64.95;34.25;;;;;;;;;;5094632;28;20025;-43
2022/01/08 11:10:38;;;;;;;57.58;32.00;;;;;;;;;;5094464;28;20047;-43
2022/01/08 11:13:06;;;;;;;55.60;31.38;;;;;;;;;;5094578;28;20420;-46
2022/01/08 11:15:48;;;;;;;64.05;33.00;;;;;;;;;;5094405;28;20110;-43
2022/01/08 11:18:18;;;;;;;60.58;33.03;;;;;;;;;;5094333;28;20020;-48
2022/01/08 11:20:44;;;;;;;61.55;33.13;;;;;;;;;;5094251;28;20024;-44
2022/01/08 11:23:12;;;;;;;61.70;33.05;;;;;;;;;;5094429;28;20028;-45
2022/01/08 11:25:38;;;;;;;60.95;34.25;;;;;;;;;;5094150;28;20024;-45
2022/01/08 11:28:10;;;;;;;59.35;32.42;;;;;;;;;;5093867;28;20048;-42
2022/01/08 11:30:40;;;;;;;61.55;33.05;;;;;;;;;;5094087;28;20044;-43
2022/01/08 11:33:16;;;;;;;53.10;30.05;;;;;;;;;;5094557;28;20020;-43
2022/01/08 11:35:43;;;;;;;56.05;30.17;;;;;;;;;;5094052;28;20032;-43
2022/01/08 11:38:11;;;;;;;61.15;32.88;;;;;;;;;;5093882;28;20020;-44
2022/01/08 11:40:38;;;;;;;85.90;41.40;;;;;;;;;;5094073;28;20101;-43
2022/01/08 11:43:08;;;;;;;141.40;60.25;;;;;;;;;;5093884;28;20032;-44
2022/01/08 11:45:48;;;;;;;118.15;51.92;;;;;;;;;;5093411;28;20024;-43
2022/01/08 11:48:16;;;;;;;75.93;42.05;;;;;;;;;;5093915;28;20024;-43
2022/01/08 11:50:50;;;;;;;57.80;32.92;;;;;;;;;;5093777;28;20042;-43
2022/01/08 11:53:24;;;;;;;70.78;37.47;;;;;;;;;;5093709;28;20032;-44
2022/01/08 11:55:51;;;;;;;79.40;38.88;;;;;;;;;;5093896;28;20151;-42
2022/01/08 11:58:26;;;;;;;64.47;37.40;;;;;;;;;;5093822;28;20028;-43
2022/01/08 12:00:59;;;;;;;66.55;37.78;;;;;;;;;;5093780;28;20020;-43
2022/01/08 12:03:32;;;;;;;69.72;37.97;;;;;;;;;;5093593;28;20032;-44
2022/01/08 12:05:59;;;;;;;73.32;39.55;;;;;;;;;;5093621;28;20537;-43
2022/01/08 12:08:52;;;;;;;73.20;39.22;;;;;;;;;;5093669;28;20106;-43
2022/01/08 12:11:18;;;;;;;80.82;40.85;;;;;;;;;;5092317;28;20032;-43
2022/01/08 12:13:45;;;;;;;66.93;38.30;;;;;;;;;;5093695;28;20074;-43
2022/01/08 12:16:32;;;;;;;75.20;38.88;;;;;;;;;;5093501;28;20441;-44
2022/01/08 12:18:59;;;;;;;66.90;36.63;;;;;;;;;;5093815;28;20501;-44
2022/01/08 12:21:38;;;;;;;71.43;38.63;;;;;;;;;;5093395;28;20098;-48
2022/01/08 12:24:20;;;;;;;67.20;36.45;;;;;;;;;;5093476;28;20027;-43
2022/01/08 12:26:46;;;;;;;79.30;44.88;;;;;;;;;;5093331;28;20394;-46
2022/01/08 12:29:31;;;;;;;77.30;40.08;;;;;;;;;;5093175;28;20127;-43
2022/01/08 12:32:16;;;;;;;74.25;39.90;;;;;;;;;;5093477;28;20108;-44
2022/01/08 12:34:50;;;;;;;85.65;44.83;;;;;;;;;;5093339;28;20020;-44
2022/01/08 12:37:17;;;;;;;101.93;49.13;;;;;;;;;;5093144;28;20030;-45
2022/01/08 12:39:43;;;;;;;102.70;51.80;;;;;;;;;;5093187;28;20031;-44
2022/01/08 12:42:21;;;;;;;89.30;48.45;;;;;;;;;;5093118;28;20028;-43
2022/01/08 12:45:01;;;;;;;86.95;45.95;;;;;;;;;;5093230;28;20482;-43
2022/01/08 12:47:44;;;;;;;83.18;42.47;;;;;;;;;;5093162;28;20473;-45
2022/01/08 12:50:28;;;;;;;74.43;40.92;;;;;;;;;;5093044;28;20056;-43
2022/01/08 12:53:06;;;;;;;96.32;47.08;;;;;;;;;;5093348;28;20107;-43
2022/01/08 12:55:35;;;;;;;72.53;39.53;;;;;;;;;;5093068;28;20442;-49
2022/01/08 12:58:02;;;;;;;67.93;37.25;;;;;;;;;;5095371;28;20077;-45
2022/01/08 13:00:28;;;;;;;69.97;39.03;;;;;;;;;;5096941;28;20111;-44
2022/01/08 13:02:54;;;;;;;70.65;41.38;;;;;;;;;;5097211;28;20050;-44
2022/01/08 13:05:20;;;;;;;71.72;40.65;;;;;;;;;;5095583;28;20058;-45
2022/01/08 13:07:50;;;;;;;79.93;45.70;;;;;;;;;;5096855;28;20393;-49
2022/01/08 13:10:16;;;;;;;81.60;46.13;;;;;;;;;;5096656;28;20043;-42
2022/01/08 13:12:43;;;;;;;98.47;52.67;;;;;;;;;;5096798;28;20031;-44
2022/01/08 13:15:09;;;;;;;108.65;52.45;;;;;;;;;;5097229;28;20026;-44
2022/01/08 13:17:35;;;;;;;113.57;55.28;;;;;;;;;;5096869;28;20016;-43
2022/01/08 13:20:03;;;;;;;105.45;54.17;;;;;;;;;;5096840;28;20027;-44
2022/01/08 13:22:30;;;;;;;101.75;53.80;;;;;;;;;;5096298;28;20521;-44
2022/01/08 13:24:56;;;;;;;123.90;60.42;;;;;;;;;;5096628;28;20024;-43
2022/01/08 13:27:23;;;;;;;91.05;50.08;;;;;;;;;;5096582;28;20028;-44
2022/01/08 13:29:50;;;;;;;103.18;52.88;;;;;;;;;;5096345;28;20036;-44
2022/01/08 13:32:17;;;;;;;134.80;61.50;;;;;;;;;;5096628;28;20024;-47
2022/01/08 13:34:48;;;;;;;124.57;61.13;;;;;;;;;;5096253;28;20027;-44
2022/01/08 13:37:18;;;;;;;118.18;58.13;;;;;;;;;;5096306;28;20024;-44
2022/01/08 13:39:45;;;;;;;95.40;49.70;;;;;;;;;;5096233;28;20030;-47
2022/01/08 13:42:16;;;;;;;113.25;58.75;;;;;;;;;;5096487;28;20068;-44
2022/01/08 13:44:45;;;;;;;122.72;66.90;;;;;;;;;;5096099;28;20017;-45
2022/01/08 13:47:37;;;;;;;124.82;64.22;;;;;;;;;;5096370;28;20031;-44
2022/01/08 13:50:23;;;;;;;167.25;81.57;;;;;;;;;;5073440;28;20178;-43
2022/01/08 13:52:53;;;;;;;210.00;112.57;;;;;;;;;;5073714;28;20036;-45
2022/01/08 13:55:19;;;;;;;193.52;107.07;;;;;;;;;;5073493;28;20115;-44
2022/01/08 13:58:06;;;;;;;160.10;87.97;;;;;;;;;;5073462;28;20145;-45
2022/01/08 14:00:34;;;;;;;105.38;58.17;;;;;;;;;;5073527;28;20044;-46
2022/01/08 14:03:03;;;;;;;89.88;49.20;;;;;;;;;;5073544;28;20051;-44
2022/01/08 14:05:29;;;;;;;72.80;40.30;;;;;;;;;;5073336;28;20056;-44
2022/01/08 14:08:08;;;;;;;79.18;40.15;;;;;;;;;;5073508;28;20032;-44
2022/01/08 14:10:38;;;;;;;85.00;45.30;;;;;;;;;;5072598;28;20514;-45
2022/01/08 14:13:06;;;;;;;80.78;44.65;;;;;;;;;;5073084;28;20031;-44
2022/01/08 14:15:32;;;;;;;74.72;42.22;;;;;;;;;;5073490;28;20036;-48
2022/01/08 14:18:07;;;;;;;63.25;35.90;;;;;;;;;;5073082;28;20027;-48
2022/01/08 14:20:33;;;;;;;59.85;35.20;;;;;;;;;;5073091;28;20064;-44
2022/01/08 14:23:18;;;;;;;63.47;36.50;;;;;;;;;;5072496;28;20038;-43
2022/01/08 14:25:45;;;;;;;63.40;36.42;;;;;;;;;;5073722;28;20525;-43
2022/01/08 14:28:20;;;;;;;66.03;36.95;;;;;;;;;;5095274;28;20390;-44
2022/01/08 14:30:46;;;;;;;112.53;59.15;;;;;;;;;;5095020;28;20111;-45
2022/01/08 14:33:12;;;;;;;152.27;69.70;;;;;;;;;;5095225;28;20459;-43
2022/01/08 14:35:38;;;;;;;214.35;88.63;;;;;;;;;;5095037;28;20095;-45
2022/01/08 14:38:05;;;;;;;159.00;69.03;;;;;;;;;;5095015;28;20148;-46
2022/01/08 14:40:35;;;;;;;179.77;76.47;;;;;;;;;;5094920;28;20024;-45
2022/01/08 14:43:08;;;;;;;142.70;63.13;;;;;;;;;;5094976;28;20034;-45
2022/01/08 14:45:35;;;;;;;200.68;85.80;;;;;;;;;;5094986;28;20055;-44
2022/01/08 14:48:04;;;;;;;144.00;65.88;;;;;;;;;;5095972;28;20359;-44